Latest Coastal Weather Observations for Browse Island

IDD60701

Issued at 6:15 pm CST Saturday 25 October 2014 (issued every 10 minutes, with the page automatically refreshed every 10 minutes)

About coastal observations | Map of coastal stations | Coastal observations for NT | Marine services | Other Formats
Station Details ID: 200784 Name: BROWSE ISLAND Lat: -14.11 Lon: 123.55 Height: 3.7 m
Data from the previous 72 hours. | See also: Recent months for locations in Northern Territory
Date/Time
CST
Temp

°C
Wind Pressure Rain
since 9am
mm
Weather Cloud Vis
km
Sea
Height
m
Swell
Dir
 
Speed
knots
Gust
knots
hPa Trend Height
m
Period
s
Dir
25/06:00pm 29.4 W 8 10 1012.1 - - - - - - - - -
25/05:30pm 29.3 W 9 10 1011.8 - - - - - - - - -
25/05:00pm 29.6 WNW 8 9 1012.0 - - - - - - - - -
25/04:30pm 30.0 WNW 6 8 1012.2 - - - - - - - - -
25/04:00pm 30.0 W 6 7 1012.4 - - - - - - - - -
25/03:30pm 29.6 W 6 7 1012.7 - - - - - - - - -
25/03:00pm 29.7 W 6 8 1012.8 - - - - - - - - -
25/02:30pm 30.1 WSW 6 6 1013.0 - - - - - - - - -
25/02:00pm 29.2 SW 6 7 1013.4 - - - - - - - - -
25/01:30pm 29.1 SSW 6 7 1014.0 - - - - - - - - -
25/01:00pm 29.0 SW 6 6 1014.3 - - - - - - - - -
25/12:30pm 29.0 SW 5 6 1014.5 - - - - - - - - -
25/12:00pm 29.7 SW 4 5 1014.9 - - - - - - - - -
25/11:30am 28.8 WSW 5 6 1015.0 - - - - - - - - -
25/11:00am 29.0 WSW 5 7 1015.2 - - - - - - - - -
25/10:30am 28.9 WSW 5 5 1015.2 - - - - - - - - -
25/10:00am 29.1 WSW 3 4 1015.5 - - - - - - - - -
25/09:30am 28.5 SW 5 6 1015.4 - - - - - - - - -
25/09:00am 28.3 WSW 4 5 1015.1 - - - - - - - - -
25/08:30am 28.2 W 3 4 1014.8 - - - - - - - - -
25/08:00am 28.1 WSW 4 5 1014.5 - - - - - - - - -
25/07:30am 27.9 WSW 4 5 1014.1 - - - - - - - - -
25/07:00am 27.9 W 5 6 1013.8 - - - - - - - - -
25/06:30am 28.2 WSW 5 6 1013.6 - - - - - - - - -
25/06:00am 28.0 WSW 5 6 1013.3 - - - - - - - - -
25/05:30am 28.1 WSW 6 7 1012.9 - - - - - - - - -
25/05:00am 28.1 WSW 5 6 1012.5 - - - - - - - - -
25/04:30am 28.0 WSW 6 6 1012.5 - - - - - - - - -
25/04:00am 28.1 SW 3 4 1012.3 - - - - - - - - -
25/03:30am 28.1 W 3 4 1012.4 - - - - - - - - -
25/03:00am 28.1 WNW 4 4 1012.3 - - - - - - - - -
25/02:30am 28.1 W 3 4 1012.5 - - - - - - - - -
25/02:00am 28.1 WNW 1 4 1012.7 - - - - - - - - -
25/01:30am 28.1 W 0 0 1013.1 - - - - - - - - -
25/01:00am 28.3 WNW 2 4 1013.4 - - - - - - - - -
25/12:30am 28.4 WNW 4 6 1013.4 - - - - - - - - -
25/12:00am 28.4 NW 5 6 1013.5 - - - - - - - - -
 
Date/Time
CST
Temp

°C
Wind Pressure Rain
since 9am
mm
Weather Cloud Vis
km
Sea
Height
m
Swell
Dir
 
Speed
knots
Gust
knots
hPa Trend Height
m
Period
s
Dir
24/11:30pm 28.5 W 6 7 1013.5 - - - - - - - - -
24/11:00pm 28.6 WNW 5 6 1013.3 - - - - - - - - -
24/10:30pm 28.5 W 4 5 1013.3 - - - - - - - - -
24/10:00pm 28.6 WNW 5 6 1013.0 - - - - - - - - -
24/09:30pm 28.6 WNW 6 6 1012.6 - - - - - - - - -
24/09:00pm 28.5 WNW 6 7 1012.3 - - - - - - - - -
24/08:30pm 28.5 WNW 7 8 1012.0 - - - - - - - - -
24/08:00pm 28.5 NW 8 9 1011.7 - - - - - - - - -
24/07:30pm 28.5 NNW 8 9 1011.4 - - - - - - - - -
24/07:00pm 28.6 NNW 10 11 1011.1 - - - - - - - - -
24/06:30pm 28.8 NNW 9 11 1010.9 - - - - - - - - -
24/06:00pm 28.9 NNW 8 10 1010.9 - - - - - - - - -
24/05:30pm 29.8 NW 6 8 1010.7 - - - - - - - - -
24/05:00pm 29.7 NW 6 8 1011.0 - - - - - - - - -
24/04:30pm 29.8 NW 6 8 1011.1 - - - - - - - - -
24/04:00pm 29.9 NNW 6 8 1011.3 - - - - - - - - -
24/03:30pm 29.7 NNW 6 7 1011.5 - - - - - - - - -
24/03:00pm 29.8 NNW 6 7 1011.7 - - - - - - - - -
24/02:30pm 30.3 NW 5 6 1012.2 - - - - - - - - -
24/02:00pm 30.2 N 5 7 1012.5 - - - - - - - - -
24/01:30pm 30.1 NNW 5 6 1012.7 - - - - - - - - -
24/01:00pm 30.2 N 6 8 1012.9 - - - - - - - - -
24/12:30pm 30.1 N 6 7 1013.1 - - - - - - - - -
24/12:00pm 29.3 N 6 8 1013.2 - - - - - - - - -
24/11:30am 29.3 NNW 7 8 1013.2 - - - - - - - - -
24/11:00am 29.0 N 6 7 1013.4 - - - - - - - - -
24/10:30am 29.3 N 6 7 1013.5 - - - - - - - - -
24/10:00am 28.8 N 7 8 1013.5 - - - - - - - - -
24/09:30am 28.5 N 8 10 1013.5 - - - - - - - - -
24/09:00am 28.0 N 9 10 1013.3 - - - - - - - - -
24/08:30am 27.9 N 8 9 1012.9 - - - - - - - - -
24/08:00am 27.7 NNW 8 10 1012.6 - - - - - - - - -
24/07:30am 27.5 NNW 7 9 1012.4 - - - - - - - - -
24/07:00am 27.6 NNW 7 9 1012.1 - - - - - - - - -
24/06:30am 27.5 NNW 7 7 1012.0 - - - - - - - - -
24/06:00am 27.6 NNW 6 7 1011.8 - - - - - - - - -
24/05:30am 27.6 NNW 7 8 1011.5 - - - - - - - - -
24/05:00am 27.6 NNW 5 6 1011.4 - - - - - - - - -
24/04:30am 27.7 NW 4 5 1011.4 - - - - - - - - -
24/04:00am 27.6 NW 5 5 1011.3 - - - - - - - - -
24/03:30am 27.8 NW 4 5 1011.5 - - - - - - - - -
24/03:00am 27.7 N 4 6 1011.6 - - - - - - - - -
24/02:30am 27.8 NW 5 6 1011.9 - - - - - - - - -
24/02:00am 27.9 NW 4 5 1012.3 - - - - - - - - -
24/01:30am 27.9 NNW 5 6 1012.5 - - - - - - - - -
24/01:00am 28.0 NNW 6 7 1012.7 - - - - - - - - -
24/12:30am 28.1 NNW 5 6 1013.1 - - - - - - - - -
24/12:00am 28.3 WNW 7 8 1013.3 - - - - - - - - -
 
Date/Time
CST
Temp

°C
Wind Pressure Rain
since 9am
mm
Weather Cloud Vis
km
Sea
Height
m
Swell
Dir
 
Speed
knots
Gust
knots
hPa Trend Height
m
Period
s
Dir
23/11:30pm 28.3 WNW 6 7 1013.5 - - - - - - - - -
23/11:00pm 28.3 W 5 7 1013.7 - - - - - - - - -
23/10:30pm 28.4 WNW 5 7 1013.5 - - - - - - - - -
23/10:00pm 28.4 W 7 9 1013.3 - - - - - - - - -
23/09:30pm 28.6 WNW 8 10 1012.9 - - - - - - - - -
23/09:00pm 28.6 WNW 7 9 1012.7 - - - - - - - - -
23/08:30pm 28.6 WNW 6 7 1012.6 - - - - - - - - -
23/08:00pm 28.5 W 7 8 1012.2 - - - - - - - - -
23/07:30pm 28.7 W 7 9 1011.8 - - - - - - - - -
23/07:00pm 28.6 W 8 10 1011.3 - - - - - - - - -
23/06:30pm 28.8 WNW 7 8 1011.0 - - - - - - - - -
23/06:00pm 29.1 NW 7 8 1010.9 - - - - - - - - -
23/05:30pm 29.2 NNW 7 8 1010.8 - - - - - - - - -
23/05:00pm 29.1 NNW 7 8 1010.7 - - - - - - - - -
23/04:30pm 29.7 NNW 6 8 1011.0 - - - - - - - - -
23/04:00pm 29.8 NNW 6 7 1011.1 - - - - - - - - -
23/03:30pm 29.6 NNW 6 7 1011.4 - - - - - - - - -
23/03:00pm 29.5 NNW 7 9 1011.6 - - - - - - - - -
23/02:30pm 29.7 NNW 7 9 1011.9 - - - - - - - - -
23/02:00pm 29.0 NNW 8 11 1012.2 - - - - - - - - -
23/01:30pm 29.1 NNW 9 11 1012.6 - - - - - - - - -
23/01:00pm 29.2 NNW 10 12 1013.0 - - - - - - - - -
23/12:30pm 29.6 NNW 9 11 1013.2 - - - - - - - - -
23/12:00pm 29.3 NNW 8 11 1013.3 - - - - - - - - -
23/11:30am 29.4 NW 8 9 1013.3 - - - - - - - - -
23/11:00am 28.7 NW 8 9 1013.6 - - - - - - - - -
23/10:30am 28.2 NW 8 10 1013.5 - - - - - - - - -
23/10:00am 28.0 NNW 7 9 1013.5 - - - - - - - - -
23/09:30am 28.0 NNW 7 7 1013.8 - - - - - - - - -
23/09:00am 28.1 NNW 8 9 1013.6 - - - - - - - - -
23/08:30am 27.7 NNW 8 10 1013.3 - - - - - - - - -
23/08:00am 27.6 NNW 8 10 1012.8 - - - - - - - - -
23/07:30am 27.3 NW 8 10 1012.4 - - - - - - - - -
23/07:00am 27.3 NNW 9 9 1012.2 - - - - - - - - -
23/06:30am 27.4 NW 8 10 1011.9 - - - - - - - - -
23/06:00am 27.3 NW 9 11 1011.6 - - - - - - - - -
23/05:30am 27.5 NW 9 10 1011.2 - - - - - - - - -
23/05:00am 27.5 NW 8 10 1011.1 - - - - - - - - -
23/04:30am 27.4 NW 8 9 1011.1 - - - - - - - - -
23/04:00am 27.5 NW 7 9 1011.1 - - - - - - - - -
23/03:30am 27.5 NW 7 9 1011.3 - - - - - - - - -
23/03:00am 27.5 NW 9 10 1011.4 - - - - - - - - -
23/02:30am 27.7 NW 7 8 1011.8 - - - - - - - - -
23/02:00am 27.8 NNW 8 9 1012.1 - - - - - - - - -
23/01:30am 27.9 N 7 9 1012.5 - - - - - - - - -
23/01:00am 27.8 N 8 9 1013.0 - - - - - - - - -
23/12:30am 28.0 NNW 8 10 1013.2 - - - - - - - - -
23/12:00am 28.0 NW 8 9 1013.5 - - - - - - - - -
 
Date/Time
CST
Temp

°C
Wind Pressure Rain
since 9am
mm
Weather Cloud Vis
km
Sea
Height
m
Swell
Dir
 
Speed
knots
Gust
knots
hPa Trend Height
m
Period
s
Dir
22/11:30pm 27.9 NNW 8 8 1013.6 - - - - - - - - -
22/11:00pm 28.1 NW 8 9 1013.5 - - - - - - - - -
22/10:30pm 28.1 NW 9 11 1013.2 - - - - - - - - -
22/10:00pm 28.0 WNW 9 11 1013.2 - - - - - - - - -
22/09:30pm 28.1 WNW 10 11 1012.9 - - - - - - - - -
22/09:00pm 28.1 NW 10 11 1012.8 - - - - - - - - -
22/08:30pm 28.1 NNW 11 12 1012.6 - - - - - - - - -
22/08:00pm 28.1 NNW 10 11 1012.3 - - - - - - - - -

Other Formats:

Comma delimited format used in spreadsheet applications
http://www.bom.gov.au/fwo/IDD60701/IDD60701.94103.axf

JavaScript Object Notation format (JSON) in row-major order
http://www.bom.gov.au/fwo/IDD60701/IDD60701.94103.json